createdAt,value
2019-03-05T00:01:12.012Z,75.01
2019-03-05T00:03:38.625Z,75.05
2019-03-05T00:06:05.437Z,74.64
2019-03-05T00:08:32.241Z,74.24
2019-03-05T00:10:58.840Z,74.26
2019-03-05T00:13:25.551Z,73.19
2019-03-05T00:15:53.270Z,73.17
2019-03-05T00:18:19.972Z,73.83
2019-03-05T00:20:46.675Z,73.27
2019-03-05T00:23:17.952Z,72.85
2019-03-05T00:25:44.648Z,72.50
2019-03-05T00:28:27.112Z,72.83
2019-03-05T00:31:10.764Z,72.46
2019-03-05T00:34:02.135Z,72.58
2019-03-05T00:36:41.352Z,72.28
2019-03-05T00:39:46.085Z,72.15
2019-03-05T00:42:50.702Z,72.89
2019-03-05T00:46:11.576Z,72.26
2019-03-05T00:49:14.601Z,72.04
2019-03-05T00:51:59.027Z,72.17
2019-03-05T00:55:09.395Z,71.89
2019-03-05T00:58:04.720Z,72.40
2019-03-05T01:00:45.373Z,71.91
2019-03-05T01:03:23.299Z,72.38
2019-03-05T01:06:22.880Z,72.48
2019-03-05T01:08:49.980Z,72.19
2019-03-05T01:11:17.496Z,72.16
2019-03-05T01:13:44.299Z,71.66
2019-03-05T01:16:12.729Z,71.39
2019-03-05T01:18:39.395Z,71.55
2019-03-05T01:21:06.192Z,71.46
2019-03-05T01:23:32.816Z,71.72
2019-03-05T01:25:59.634Z,71.97
2019-03-05T01:28:26.349Z,71.43
2019-03-05T01:31:02.506Z,71.37
2019-03-05T01:33:33.363Z,71.72
2019-03-05T01:36:10.016Z,71.64
2019-03-05T01:38:46.177Z,71.49
2019-03-05T01:41:13.176Z,71.59
2019-03-05T01:43:40.021Z,71.31
2019-03-05T01:46:06.621Z,71.40
2019-03-05T01:48:33.346Z,70.98
2019-03-05T01:50:59.976Z,71.30
2019-03-05T01:53:26.667Z,71.05
2019-03-05T01:55:53.263Z,70.91
2019-03-05T01:58:19.883Z,71.01
2019-03-05T02:00:46.575Z,70.76
2019-03-05T02:03:13.384Z,71.38
2019-03-05T02:05:40.398Z,70.66
2019-03-05T02:08:07.394Z,70.68
2019-03-05T02:10:33.981Z,70.37
2019-03-05T02:13:00.643Z,69.77
2019-03-05T02:15:27.472Z,70.30
2019-03-05T02:17:54.207Z,70.05
2019-03-05T02:20:22.734Z,70.93
2019-03-05T02:22:59.434Z,72.27
2019-03-05T02:25:57.166Z,72.97
2019-03-05T02:28:38.323Z,72.05
2019-03-05T02:31:30.443Z,73.89
2019-03-05T02:34:30.876Z,73.50
2019-03-05T02:37:45.367Z,73.90
2019-03-05T02:40:53.017Z,74.88
2019-03-05T02:43:45.375Z,78.09
2019-03-05T02:47:02.054Z,80.21
2019-03-05T02:49:41.358Z,81.21
2019-03-05T02:52:40.754Z,83.44
2019-03-05T02:55:33.886Z,83.87
2019-03-05T02:57:59.779Z,85.18
2019-03-05T03:00:37.299Z,85.48
2019-03-05T03:03:15.009Z,85.71
2019-03-05T03:05:46.472Z,86.79
2019-03-05T03:08:13.160Z,86.11
2019-03-05T03:10:39.979Z,87.34
2019-03-05T03:13:06.714Z,86.98
2019-03-05T03:15:33.505Z,88.08
2019-03-05T03:18:00.192Z,87.00
2019-03-05T03:20:26.902Z,85.76
2019-03-05T03:22:53.738Z,86.19
2019-03-05T03:25:21.455Z,86.56
2019-03-05T03:27:48.715Z,86.82
2019-03-05T03:30:19.770Z,86.05
2019-03-05T03:32:46.503Z,84.98
2019-03-05T03:35:13.893Z,85.58
2019-03-05T03:37:40.488Z,85.19
2019-03-05T03:40:09.882Z,86.03
2019-03-05T03:42:36.488Z,85.17
2019-03-05T03:45:04.411Z,85.00
2019-03-05T03:47:31.109Z,83.60
2019-03-05T03:49:57.727Z,82.76
2019-03-05T03:52:24.344Z,83.80
2019-03-05T03:54:51.242Z,82.12
2019-03-05T03:57:17.950Z,82.25
2019-03-05T03:59:44.754Z,81.65
2019-03-05T04:02:11.443Z,82.00
2019-03-05T04:04:38.262Z,80.44
2019-03-05T04:07:04.883Z,81.34
2019-03-05T04:09:31.683Z,80.91
2019-03-05T04:11:58.318Z,79.46
2019-03-05T04:14:24.929Z,79.34
2019-03-05T04:16:51.515Z,79.59
2019-03-05T04:19:22.841Z,79.63
2019-03-05T04:21:49.545Z,78.60
2019-03-05T04:24:16.149Z,77.62
2019-03-05T04:26:42.904Z,78.22
2019-03-05T04:29:09.489Z,78.56
2019-03-05T04:31:36.104Z,77.77
2019-03-05T04:34:02.934Z,78.07
2019-03-05T04:36:29.527Z,77.32
2019-03-05T04:38:56.106Z,77.04
2019-03-05T04:41:22.852Z,76.94
2019-03-05T04:43:49.555Z,76.85
2019-03-05T04:46:34.660Z,77.14
2019-03-05T04:49:26.407Z,78.67
2019-03-05T04:51:57.796Z,77.95
2019-03-05T04:54:24.528Z,78.46
2019-03-05T04:56:51.332Z,78.69
2019-03-05T04:59:17.943Z,77.88
2019-03-05T05:01:44.583Z,77.99
2019-03-05T05:04:11.223Z,77.46
2019-03-05T05:06:37.927Z,77.84
2019-03-05T05:09:05.432Z,77.19
2019-03-05T05:11:32.136Z,76.57
2019-03-05T05:13:58.720Z,76.66
2019-03-05T05:16:25.628Z,76.79
2019-03-05T05:18:52.321Z,76.49
2019-03-05T05:21:18.915Z,76.32
2019-03-05T05:23:45.542Z,75.97
2019-03-05T05:26:12.151Z,76.18
2019-03-05T05:28:38.751Z,76.05
2019-03-05T05:31:05.473Z,76.12
2019-03-05T05:33:32.048Z,74.82
2019-03-05T05:35:58.891Z,75.22
2019-03-05T05:38:25.635Z,75.08
2019-03-05T05:40:52.337Z,75.76
2019-03-05T05:43:27.501Z,75.77
2019-03-05T05:45:54.495Z,75.92
2019-03-05T05:48:21.195Z,75.83
2019-03-05T05:50:48.259Z,75.45
2019-03-05T05:53:15.034Z,75.14
2019-03-05T05:55:43.844Z,75.35
2019-03-05T05:58:10.547Z,75.48
2019-03-05T06:00:40.995Z,75.13
2019-03-05T06:03:07.786Z,74.92
2019-03-05T06:05:34.607Z,74.86
2019-03-05T06:08:01.220Z,74.62
2019-03-05T06:10:27.919Z,75.66
2019-03-05T06:12:54.510Z,75.40
2019-03-05T06:15:21.314Z,75.04
2019-03-05T06:17:47.910Z,74.93
2019-03-05T06:20:14.707Z,74.35
2019-03-05T06:22:41.327Z,74.39
2019-03-05T06:25:08.155Z,74.43
2019-03-05T06:27:34.954Z,74.05
2019-03-05T06:30:01.562Z,74.43
2019-03-05T06:32:28.257Z,74.03
2019-03-05T06:34:54.985Z,74.46
2019-03-05T06:37:21.635Z,73.96
2019-03-05T06:39:48.244Z,73.67
2019-03-05T06:42:14.888Z,73.69
2019-03-05T06:44:41.625Z,74.05
2019-03-05T06:47:08.229Z,73.47
2019-03-05T06:49:34.815Z,74.00
2019-03-05T06:52:01.587Z,73.89
2019-03-05T06:54:28.185Z,73.79
2019-03-05T06:56:54.862Z,74.10
2019-03-05T06:59:21.436Z,73.94
2019-03-05T07:01:48.052Z,74.22
2019-03-05T07:04:14.651Z,73.93
2019-03-05T07:06:54.604Z,73.71
2019-03-05T07:10:05.275Z,73.46
2019-03-05T07:12:49.120Z,74.10
2019-03-05T07:15:56.767Z,74.29
2019-03-05T07:18:27.172Z,74.22
2019-03-05T07:21:20.400Z,74.33
2019-03-05T07:24:32.610Z,74.40
2019-03-05T07:26:59.320Z,73.61
2019-03-05T07:29:25.947Z,74.01
2019-03-05T07:31:52.660Z,73.87
2019-03-05T07:34:23.075Z,74.16
2019-03-05T07:36:49.809Z,73.69
2019-03-05T07:39:21.231Z,75.02
2019-03-05T07:41:48.271Z,74.84
2019-03-05T07:44:15.156Z,75.50
2019-03-05T07:46:41.892Z,74.75
2019-03-05T07:49:08.697Z,74.88
2019-03-05T07:51:35.457Z,75.04
2019-03-05T07:54:02.043Z,74.82
2019-03-05T07:56:28.648Z,74.84
2019-03-05T07:58:55.286Z,74.15
2019-03-05T08:01:22.732Z,74.52
2019-03-05T08:03:49.394Z,73.91
2019-03-05T08:06:16.115Z,73.84
2019-03-05T08:09:19.880Z,74.37
2019-03-05T08:11:46.534Z,74.21
2019-03-05T08:14:44.412Z,73.98
2019-03-05T08:17:11.135Z,74.72
2019-03-05T08:19:37.729Z,74.10
2019-03-05T08:22:05.609Z,74.71
2019-03-05T08:24:32.302Z,75.13
2019-03-05T08:26:58.900Z,75.36
2019-03-05T08:29:25.585Z,74.99
2019-03-05T08:31:52.226Z,75.34
2019-03-05T08:34:18.940Z,76.01
2019-03-05T08:36:45.643Z,76.16
2019-03-05T08:39:12.360Z,77.30
2019-03-05T08:41:39.072Z,77.97
2019-03-05T08:44:05.807Z,78.21
2019-03-05T08:46:33.020Z,78.26
2019-03-05T08:48:59.851Z,78.43
2019-03-05T08:51:26.451Z,79.06
2019-03-05T08:53:53.097Z,79.09
2019-03-05T08:56:20.006Z,79.22
2019-03-05T08:58:46.728Z,79.61
2019-03-05T09:01:13.340Z,79.80
2019-03-05T09:03:39.977Z,79.50
2019-03-05T09:06:06.768Z,79.29
2019-03-05T09:08:33.541Z,78.94
2019-03-05T09:11:00.334Z,79.46
2019-03-05T09:13:32.564Z,80.16
2019-03-05T09:15:55.581Z,79.45
2019-03-05T09:18:22.187Z,79.70
2019-03-05T09:20:49.001Z,78.64
2019-03-05T09:23:16.016Z,77.81
2019-03-05T09:25:42.750Z,78.59
2019-03-05T09:28:09.473Z,78.52
2019-03-05T09:30:36.095Z,78.76
2019-03-05T09:33:02.811Z,77.40
2019-03-05T09:35:29.546Z,76.13
2019-03-05T09:37:56.426Z,75.38
2019-03-05T09:40:23.264Z,74.43
2019-03-05T09:42:50.247Z,73.89
2019-03-05T09:45:17.451Z,71.97
2019-03-05T09:47:44.260Z,73.12
2019-03-05T09:50:13.374Z,74.65
2019-03-05T09:52:40.299Z,75.97
2019-03-05T09:55:09.334Z,77.16
2019-03-05T09:57:38.114Z,77.32
2019-03-05T10:00:06.100Z,76.39
2019-03-05T10:02:33.317Z,76.16
2019-03-05T10:04:59.924Z,75.36
2019-03-05T10:07:26.555Z,74.86
2019-03-05T10:09:53.164Z,74.58
2019-03-05T10:12:19.959Z,74.59
2019-03-05T10:14:46.699Z,74.27
2019-03-05T10:17:13.322Z,74.52
2019-03-05T10:19:40.041Z,74.09
2019-03-05T10:22:07.067Z,72.11
2019-03-05T10:24:33.692Z,71.97
2019-03-05T10:27:00.310Z,69.08
2019-03-05T10:29:27.135Z,65.01
2019-03-05T10:31:53.852Z,66.07
2019-03-05T10:34:20.583Z,63.33
2019-03-05T10:36:47.412Z,62.26
2019-03-05T10:39:29.894Z,58.86
2019-03-05T10:41:49.697Z,60.55
2019-03-05T10:44:16.811Z,62.04
2019-03-05T10:46:43.970Z,61.26
2019-03-05T10:49:10.748Z,61.59
2019-03-05T10:51:37.555Z,63.28
2019-03-05T10:54:04.309Z,62.71
2019-03-05T10:56:31.278Z,63.30
2019-03-05T10:58:58.005Z,63.22
2019-03-05T11:01:24.711Z,61.96
2019-03-05T11:03:51.565Z,62.41
2019-03-05T11:06:18.390Z,63.00
2019-03-05T11:08:45.212Z,64.18
2019-03-05T11:11:13.843Z,63.76
2019-03-05T11:13:41.450Z,63.65
2019-03-05T11:16:08.319Z,63.57
2019-03-05T11:18:40.453Z,63.92
2019-03-05T11:21:07.577Z,63.05
2019-03-05T11:23:34.288Z,63.75
2019-03-05T11:26:00.919Z,63.45
2019-03-05T11:28:27.759Z,60.99
2019-03-05T11:30:54.586Z,59.42
2019-03-05T11:33:21.404Z,60.14
2019-03-05T11:35:48.401Z,60.20
2019-03-05T11:38:15.220Z,60.19
2019-03-05T11:40:42.075Z,60.20
2019-03-05T11:43:17.948Z,60.35
2019-03-05T11:45:45.108Z,57.86
2019-03-05T11:48:12.590Z,55.81
2019-03-05T11:50:39.529Z,57.18
2019-03-05T11:53:06.274Z,57.49
2019-03-05T11:55:33.000Z,59.03
2019-03-05T11:57:59.835Z,58.66
2019-03-05T12:00:30.921Z,53.21
2019-03-05T12:02:57.729Z,51.84
2019-03-05T12:05:24.321Z,51.17
2019-03-05T12:07:51.068Z,49.63
2019-03-05T12:10:18.606Z,49.95
2019-03-05T12:12:45.300Z,49.07
2019-03-05T12:15:13.279Z,47.37
2019-03-05T12:17:39.977Z,48.57
2019-03-05T12:20:08.647Z,48.51
2019-03-05T12:22:35.473Z,49.53
2019-03-05T12:25:03.644Z,48.38
2019-03-05T12:27:30.267Z,43.86
2019-03-05T12:29:57.069Z,41.51
2019-03-05T12:32:23.674Z,40.03
2019-03-05T12:34:50.425Z,40.93
2019-03-05T12:37:17.141Z,40.21
2019-03-05T12:39:43.899Z,40.82
2019-03-05T12:42:10.494Z,43.28
2019-03-05T12:44:37.586Z,41.43
2019-03-05T12:47:04.381Z,45.35
2019-03-05T12:49:31.099Z,44.12
2019-03-05T12:51:57.864Z,47.02
2019-03-05T12:54:24.487Z,48.07
2019-03-05T12:56:51.172Z,49.18
2019-03-05T12:59:17.772Z,50.47
2019-03-05T13:01:44.476Z,48.77
2019-03-05T13:04:11.182Z,48.99
2019-03-05T13:06:37.994Z,51.22
2019-03-05T13:09:06.807Z,51.77
2019-03-05T13:11:33.407Z,56.57
2019-03-05T13:14:06.219Z,56.65
2019-03-05T13:16:28.669Z,57.63
2019-03-05T13:18:55.264Z,57.74
2019-03-05T13:21:22.006Z,58.52
2019-03-05T13:23:48.610Z,57.85
2019-03-05T13:26:15.239Z,57.61
2019-03-05T13:28:41.966Z,55.32
2019-03-05T13:31:08.802Z,53.78
2019-03-05T13:33:37.967Z,53.56
2019-03-05T13:36:12.209Z,49.56
2019-03-05T13:38:35.115Z,51.26
2019-03-05T13:41:01.928Z,51.69
2019-03-05T13:43:28.736Z,53.82
2019-03-05T13:45:55.357Z,53.33
2019-03-05T13:49:19.427Z,47.22
2019-03-05T13:52:12.702Z,46.82
2019-03-05T13:55:26.827Z,42.84
2019-03-05T13:58:08.236Z,41.75
2019-03-05T14:00:34.976Z,45.80
2019-03-05T14:03:16.277Z,49.40
2019-03-05T14:05:58.887Z,49.32
2019-03-05T14:08:58.172Z,47.20
2019-03-05T14:11:25.000Z,45.34
2019-03-05T14:13:51.931Z,47.88
2019-03-05T14:16:19.786Z,47.75
2019-03-05T14:18:46.483Z,47.12
2019-03-05T14:21:13.167Z,44.04
2019-03-05T14:23:39.868Z,42.35
2019-03-05T14:26:06.782Z,41.96
2019-03-05T14:28:33.402Z,40.92
2019-03-05T14:31:00.140Z,41.73
2019-03-05T14:33:26.943Z,44.05
2019-03-05T14:35:53.672Z,39.87
2019-03-05T14:38:20.378Z,38.63
2019-03-05T14:40:47.248Z,38.02
2019-03-05T14:43:13.982Z,38.03
2019-03-05T14:45:40.824Z,41.91
2019-03-05T14:48:07.541Z,45.35
2019-03-05T14:50:34.509Z,45.98
2019-03-05T14:53:01.221Z,47.67
2019-03-05T14:55:28.034Z,48.19
2019-03-05T14:57:54.816Z,49.15
2019-03-05T15:00:21.850Z,49.89
2019-03-05T15:02:48.701Z,50.23
2019-03-05T15:05:15.779Z,50.58
2019-03-05T15:07:42.614Z,50.74
2019-03-05T15:10:09.407Z,50.58
2019-03-05T15:12:36.916Z,50.97
2019-03-05T15:15:06.817Z,50.21
2019-03-05T15:17:33.441Z,49.06
2019-03-05T15:20:00.227Z,47.96
2019-03-05T15:22:27.106Z,48.34
2019-03-05T15:24:53.768Z,46.95
2019-03-05T15:27:20.524Z,46.77
2019-03-05T15:29:47.228Z,45.19
2019-03-05T15:32:13.851Z,45.03
2019-03-05T15:34:40.487Z,45.74
2019-03-05T15:37:07.202Z,47.33
2019-03-05T15:39:33.760Z,47.20
2019-03-05T15:42:03.894Z,45.74
2019-03-05T15:44:30.517Z,45.81
2019-03-05T15:46:57.233Z,46.80
2019-03-05T15:49:24.001Z,47.52
2019-03-05T15:51:50.678Z,47.03
2019-03-05T15:54:17.225Z,47.44
2019-03-05T15:56:43.860Z,47.18
2019-03-05T15:59:10.476Z,47.27
2019-03-05T16:01:37.093Z,46.97
2019-03-05T16:04:03.812Z,47.67
2019-03-05T16:06:34.059Z,47.87
2019-03-05T16:09:02.261Z,47.83
2019-03-05T16:11:30.250Z,48.06
2019-03-05T16:13:57.929Z,48.73
2019-03-05T16:16:25.021Z,49.11
2019-03-05T16:18:51.638Z,49.80
2019-03-05T16:21:18.438Z,50.57
2019-03-05T16:23:45.070Z,50.26
2019-03-05T16:26:11.698Z,50.69
2019-03-05T16:28:39.327Z,50.46
2019-03-05T16:31:21.800Z,50.55
2019-03-05T16:33:57.474Z,50.88
2019-03-05T16:36:40.578Z,51.00
2019-03-05T16:39:31.740Z,50.98
2019-03-05T16:42:06.647Z,51.49
2019-03-05T16:44:43.403Z,51.73
2019-03-05T16:47:19.271Z,51.67
2019-03-05T16:50:00.421Z,52.51
2019-03-05T16:52:46.739Z,53.03
2019-03-05T16:55:27.608Z,53.94
2019-03-05T16:58:13.999Z,54.33
2019-03-05T17:01:03.344Z,55.22
2019-03-05T17:03:58.855Z,55.19
2019-03-05T17:06:36.383Z,56.19
2019-03-05T17:09:16.130Z,56.28
2019-03-05T17:11:54.366Z,56.50
2019-03-05T17:14:21.430Z,56.29
2019-03-05T17:16:48.317Z,56.85
2019-03-05T17:19:15.161Z,56.88
2019-03-05T17:21:41.872Z,56.70
2019-03-05T17:24:08.716Z,56.30
2019-03-05T17:26:35.455Z,55.87
2019-03-05T17:29:02.131Z,55.93
2019-03-05T17:31:28.950Z,55.95
2019-03-05T17:33:55.665Z,55.93
2019-03-05T17:36:22.674Z,56.66
2019-03-05T17:38:49.513Z,56.78
2019-03-05T17:41:16.322Z,56.75
2019-03-05T17:43:43.056Z,56.62
2019-03-05T17:46:09.828Z,57.14
2019-03-05T17:48:36.643Z,56.95
2019-03-05T17:51:03.587Z,57.49
2019-03-05T17:53:30.737Z,57.53
2019-03-05T17:55:57.351Z,58.29
2019-03-05T17:58:24.083Z,58.42
2019-03-05T18:00:51.848Z,58.45
2019-03-05T18:03:18.563Z,58.56
2019-03-05T18:05:45.165Z,59.27
2019-03-05T18:08:12.013Z,59.55
2019-03-05T18:10:38.620Z,59.81
2019-03-05T18:13:05.336Z,59.63
2019-03-05T18:15:32.071Z,60.34
2019-03-05T18:17:58.808Z,59.66
2019-03-05T18:20:25.523Z,60.09
2019-03-05T18:22:52.197Z,60.11
2019-03-05T18:25:19.165Z,60.45
2019-03-05T18:27:45.984Z,60.30
2019-03-05T18:30:14.593Z,60.58
2019-03-05T18:32:41.411Z,60.56
2019-03-05T18:35:08.988Z,60.49
2019-03-05T18:37:35.747Z,60.73
2019-03-05T18:40:02.781Z,60.76
2019-03-05T18:42:29.629Z,61.21
2019-03-05T18:44:56.858Z,61.20
2019-03-05T18:47:23.752Z,61.09
2019-03-05T18:49:50.816Z,60.84
2019-03-05T18:52:17.768Z,60.97
2019-03-05T18:54:47.084Z,61.03
2019-03-05T18:57:16.575Z,61.27
2019-03-05T18:59:43.261Z,61.08
2019-03-05T19:02:10.066Z,61.58
2019-03-05T19:04:36.693Z,61.35
2019-03-05T19:07:03.550Z,61.49
2019-03-05T19:09:30.179Z,61.52
2019-03-05T19:11:56.990Z,61.79
2019-03-05T19:14:23.824Z,61.60
2019-03-05T19:16:50.655Z,61.64
2019-03-05T19:19:17.513Z,61.82
2019-03-05T19:21:44.148Z,62.01
2019-03-05T19:24:10.752Z,61.88
2019-03-05T19:26:37.455Z,62.07
2019-03-05T19:29:04.503Z,62.05
2019-03-05T19:31:31.552Z,62.29
2019-03-05T19:33:58.213Z,62.84
2019-03-05T19:36:25.068Z,63.09
2019-03-05T19:38:51.678Z,63.21
2019-03-05T19:41:18.402Z,63.41
2019-03-05T19:43:45.133Z,63.37
2019-03-05T19:46:12.111Z,63.61
2019-03-05T19:48:38.705Z,64.05
2019-03-05T19:51:05.573Z,64.16
2019-03-05T19:53:32.178Z,64.47
2019-03-05T19:55:59.001Z,64.28
2019-03-05T19:58:25.757Z,64.39
2019-03-05T20:01:00.401Z,64.71
2019-03-05T20:03:27.252Z,65.25
2019-03-05T20:05:53.974Z,65.29
2019-03-05T20:08:21.162Z,65.24
2019-03-05T20:10:48.016Z,65.48
2019-03-05T20:13:15.017Z,65.97
2019-03-05T20:15:41.823Z,66.09
2019-03-05T20:18:08.562Z,66.34
2019-03-05T20:20:35.364Z,66.51
2019-03-05T20:23:02.093Z,66.84
2019-03-05T20:25:29.352Z,67.08
2019-03-05T20:27:56.157Z,67.50
2019-03-05T20:30:23.183Z,67.41
2019-03-05T20:32:50.441Z,67.51
2019-03-05T20:35:17.270Z,67.50
2019-03-05T20:37:44.119Z,68.03
2019-03-05T20:40:12.489Z,68.19
2019-03-05T20:42:39.285Z,67.87
2019-03-05T20:45:09.428Z,68.22
2019-03-05T20:47:36.239Z,68.36
2019-03-05T20:50:03.553Z,69.09
2019-03-05T20:52:30.169Z,68.99
2019-03-05T20:54:56.811Z,69.42
2019-03-05T20:57:23.504Z,68.67
2019-03-05T20:59:50.118Z,69.36
2019-03-05T21:02:16.857Z,69.56
2019-03-05T21:04:43.682Z,69.65
2019-03-05T21:07:10.482Z,69.99
2019-03-05T21:09:37.328Z,70.10
2019-03-05T21:12:04.124Z,69.32
2019-03-05T21:14:30.884Z,69.07
2019-03-05T21:16:57.498Z,69.00
2019-03-05T21:19:24.202Z,69.04
2019-03-05T21:21:51.017Z,69.20
2019-03-05T21:24:17.751Z,68.99
2019-03-05T21:26:44.354Z,68.88
2019-03-05T21:29:10.967Z,69.08
2019-03-05T21:31:37.698Z,69.30
2019-03-05T21:34:04.292Z,69.30
2019-03-05T21:36:32.798Z,69.17
2019-03-05T21:39:00.428Z,69.24
2019-03-05T21:41:27.462Z,69.10
2019-03-05T21:43:54.680Z,69.29
2019-03-05T21:46:22.324Z,69.16
2019-03-05T21:48:48.948Z,69.75
2019-03-05T21:51:15.867Z,69.32
2019-03-05T21:53:43.173Z,69.54
2019-03-05T21:56:09.994Z,70.06
2019-03-05T21:58:36.726Z,70.54
2019-03-05T22:01:04.322Z,70.59
2019-03-05T22:03:31.157Z,70.69
2019-03-05T22:05:58.985Z,70.71
2019-03-05T22:08:25.800Z,71.01
2019-03-05T22:10:52.968Z,70.72
2019-03-05T22:13:19.861Z,70.72
2019-03-05T22:15:46.718Z,70.79
2019-03-05T22:18:13.410Z,70.81
2019-03-05T22:20:40.162Z,71.27
2019-03-05T22:23:06.994Z,70.96
2019-03-05T22:25:34.382Z,71.95
2019-03-05T22:28:01.476Z,71.75
2019-03-05T22:30:28.908Z,71.78
2019-03-05T22:32:55.673Z,71.48
2019-03-05T22:35:22.792Z,71.68
2019-03-05T22:37:49.526Z,71.88
2019-03-05T22:40:16.356Z,71.84
2019-03-05T22:42:43.186Z,72.51
2019-03-05T22:45:15.634Z,72.31
2019-03-05T22:47:42.443Z,72.73
2019-03-05T22:50:09.266Z,73.14
2019-03-05T22:52:35.909Z,74.65
2019-03-05T22:55:02.866Z,74.12
2019-03-05T22:57:29.584Z,73.87
2019-03-05T22:59:56.196Z,73.59
2019-03-05T23:02:23.164Z,72.93
2019-03-05T23:04:49.993Z,74.75
2019-03-05T23:07:16.710Z,75.77
2019-03-05T23:09:43.298Z,75.37
2019-03-05T23:12:10.805Z,75.29
2019-03-05T23:14:37.629Z,74.07
2019-03-05T23:17:04.843Z,73.15
2019-03-05T23:19:31.736Z,72.75
2019-03-05T23:21:58.864Z,72.61
2019-03-05T23:24:25.587Z,72.24
2019-03-05T23:26:52.378Z,71.75
2019-03-05T23:29:23.865Z,72.00
2019-03-05T23:31:50.479Z,71.89
2019-03-05T23:34:18.479Z,71.99
2019-03-05T23:36:45.308Z,71.75
2019-03-05T23:39:15.742Z,71.71
2019-03-05T23:41:42.559Z,71.61
2019-03-05T23:44:09.587Z,71.41
2019-03-05T23:46:36.210Z,71.50
2019-03-05T23:49:03.739Z,71.47
2019-03-05T23:51:30.486Z,71.54
2019-03-05T23:53:57.371Z,71.83
2019-03-05T23:56:24.103Z,71.68
2019-03-05T23:58:50.916Z,71.48
